createdAt,value
2019-01-24T00:00:27.307Z,97891.67
2019-01-24T00:01:35.325Z,97877.78
2019-01-24T00:02:45.223Z,97877.83
2019-01-24T00:03:53.089Z,97881.66
2019-01-24T00:05:02.027Z,97884.70
2019-01-24T00:06:11.473Z,97884.70
2019-01-24T00:07:19.400Z,97887.73
2019-01-24T00:08:27.334Z,97883.00
2019-01-24T00:09:35.111Z,97890.37
2019-01-24T00:10:42.817Z,97887.51
2019-01-24T00:11:50.954Z,97899.11
2019-01-24T00:12:58.871Z,97893.14
2019-01-24T00:14:06.591Z,97896.97
2019-01-24T00:15:14.379Z,97906.88
2019-01-24T00:16:22.318Z,97899.45
2019-01-24T00:17:30.031Z,97900.67
2019-01-24T00:18:38.207Z,97903.66
2019-01-24T00:19:46.049Z,97910.09
2019-01-24T00:20:54.149Z,97906.20
2019-01-24T00:22:02.044Z,97911.43
2019-01-24T00:23:09.916Z,97919.14
2019-01-24T00:24:17.812Z,97921.23
2019-01-24T00:25:25.600Z,97917.41
2019-01-24T00:26:33.526Z,97913.97
2019-01-24T00:27:41.043Z,97911.83
2019-01-24T00:28:51.760Z,97912.27
2019-01-24T00:29:59.522Z,97922.23
2019-01-24T00:31:07.318Z,97910.70
2019-01-24T00:32:14.915Z,97908.52
2019-01-24T00:33:22.483Z,97905.86
2019-01-24T00:34:30.123Z,97896.24
2019-01-24T00:35:37.959Z,97904.39
2019-01-24T00:36:45.543Z,97905.23
2019-01-24T00:37:53.331Z,97903.09
2019-01-24T00:39:01.435Z,97906.13
2019-01-24T00:40:22.946Z,97908.39
2019-01-24T00:41:30.524Z,97918.25
2019-01-24T00:42:38.326Z,97918.30
2019-01-24T00:43:45.920Z,97912.73
2019-01-24T00:44:53.535Z,97911.38
2019-01-24T00:46:01.337Z,97896.74
2019-01-24T00:47:09.130Z,97906.25
2019-01-24T00:48:17.300Z,97905.80
2019-01-24T00:49:25.031Z,97897.64
2019-01-24T00:50:32.821Z,97892.52
2019-01-24T00:51:40.695Z,97893.76
2019-01-24T00:52:48.341Z,97891.17
2019-01-24T00:53:56.555Z,97896.74
2019-01-24T00:55:05.793Z,97899.83
2019-01-24T00:56:13.572Z,97897.54
2019-01-24T00:57:21.550Z,97906.13
2019-01-24T00:58:29.216Z,97912.17
2019-01-24T00:59:37.088Z,97916.11
2019-01-24T01:00:45.192Z,97917.05
2019-01-24T01:01:52.792Z,97920.56
2019-01-24T01:03:00.961Z,97924.44
2019-01-24T01:04:08.621Z,97920.16
2019-01-24T01:05:16.303Z,97914.24
2019-01-24T01:06:24.336Z,97923.20
2019-01-24T01:07:32.039Z,97924.09
2019-01-24T01:08:40.023Z,97922.41
2019-01-24T01:09:47.655Z,97922.91
2019-01-24T01:10:55.290Z,97920.71
2019-01-24T01:12:03.715Z,97920.61
2019-01-24T01:13:11.710Z,97925.79
2019-01-24T01:14:19.652Z,97933.48
2019-01-24T01:15:27.310Z,97939.56
2019-01-24T01:16:34.966Z,97932.21
2019-01-24T01:17:42.974Z,97939.12
2019-01-24T01:18:50.682Z,97940.88
2019-01-24T01:19:58.531Z,97948.78
2019-01-24T01:21:07.350Z,97929.89
2019-01-24T01:22:15.261Z,97932.12
2019-01-24T01:23:22.913Z,97933.42
2019-01-24T01:24:30.689Z,97933.38
2019-01-24T01:25:38.399Z,97936.41
2019-01-24T01:26:46.305Z,97940.34
2019-01-24T01:27:53.954Z,97939.05
2019-01-24T01:29:01.998Z,97939.50
2019-01-24T01:30:22.000Z,97941.64
2019-01-24T01:31:29.992Z,97938.59
2019-01-24T01:32:38.014Z,97933.02
2019-01-24T01:33:45.678Z,97940.39
2019-01-24T01:34:53.338Z,97930.03
2019-01-24T01:36:01.326Z,97937.42
2019-01-24T01:37:09.251Z,97936.13
2019-01-24T01:38:17.500Z,97947.33
2019-01-24T01:39:25.336Z,97937.91
2019-01-24T01:40:33.616Z,97942.36
2019-01-24T01:41:41.549Z,97943.70
2019-01-24T01:42:49.319Z,97945.16
2019-01-24T01:43:57.002Z,97945.70
2019-01-24T01:45:06.993Z,97946.55
2019-01-24T01:46:14.933Z,97933.96
2019-01-24T01:47:22.705Z,97928.72
2019-01-24T01:48:30.636Z,97938.17
2019-01-24T01:49:38.441Z,97941.61
2019-01-24T01:50:46.044Z,97948.08
2019-01-24T01:51:53.951Z,97946.78
2019-01-24T01:53:01.754Z,97955.00
2019-01-24T01:54:09.172Z,97954.05
2019-01-24T01:55:17.966Z,97948.48
2019-01-24T01:56:25.839Z,97959.23
2019-01-24T01:57:33.967Z,97947.19
2019-01-24T01:58:41.922Z,97938.13
2019-01-24T01:59:49.793Z,97944.20
2019-01-24T02:00:57.303Z,97957.25
2019-01-24T02:02:04.887Z,97952.13
2019-01-24T02:03:12.756Z,97952.13
2019-01-24T02:04:20.762Z,97962.47
2019-01-24T02:05:28.578Z,97961.91
2019-01-24T02:06:36.404Z,97958.87
2019-01-24T02:07:44.192Z,97954.15
2019-01-24T02:08:52.078Z,97953.30
2019-01-24T02:09:59.892Z,97963.66
2019-01-24T02:11:07.952Z,97951.23
2019-01-24T02:12:15.848Z,97949.98
2019-01-24T02:13:23.826Z,97958.64
2019-01-24T02:14:31.745Z,97949.59
2019-01-24T02:15:39.523Z,97952.19
2019-01-24T02:16:47.451Z,97942.66
2019-01-24T02:17:55.717Z,97943.11
2019-01-24T02:19:03.420Z,97944.85
2019-01-24T02:20:18.665Z,97946.59
2019-01-24T02:21:26.584Z,97936.27
2019-01-24T02:22:34.534Z,97946.66
2019-01-24T02:23:42.821Z,97940.14
2019-01-24T02:24:50.716Z,97944.00
2019-01-24T02:25:58.418Z,97939.58
2019-01-24T02:27:10.752Z,97942.91
2019-01-24T02:28:18.534Z,97950.27
2019-01-24T02:29:26.723Z,97957.19
2019-01-24T02:30:34.764Z,97955.46
2019-01-24T02:31:42.713Z,97950.73
2019-01-24T02:32:50.701Z,97952.86
2019-01-24T02:33:58.504Z,97937.73
2019-01-24T02:35:09.045Z,97953.25
2019-01-24T02:36:16.769Z,97926.53
2019-01-24T02:37:24.521Z,97943.80
2019-01-24T02:38:32.425Z,97952.02
2019-01-24T02:39:40.634Z,97941.83
2019-01-24T02:40:48.633Z,97952.23
2019-01-24T02:41:56.482Z,97955.66
2019-01-24T02:43:04.696Z,97948.75
2019-01-24T02:44:12.698Z,97940.19
2019-01-24T02:45:23.302Z,97948.35
2019-01-24T02:46:31.131Z,97943.63
2019-01-24T02:47:38.706Z,97953.08
2019-01-24T02:48:46.441Z,97954.77
2019-01-24T02:49:54.557Z,97952.57
2019-01-24T02:51:02.144Z,97957.69
2019-01-24T02:52:09.871Z,97943.06
2019-01-24T02:53:17.760Z,97949.19
2019-01-24T02:54:25.607Z,97947.45
2019-01-24T02:55:33.451Z,97939.74
2019-01-24T02:56:41.437Z,97951.33
2019-01-24T02:57:49.495Z,97947.91
2019-01-24T02:58:57.475Z,97948.80
2019-01-24T03:00:08.967Z,97953.27
2019-01-24T03:01:16.709Z,97933.44
2019-01-24T03:02:24.758Z,97942.14
2019-01-24T03:03:32.168Z,97940.05
2019-01-24T03:04:39.847Z,97947.47
2019-01-24T03:05:48.048Z,97943.54
2019-01-24T03:06:56.095Z,97934.03
2019-01-24T03:08:04.065Z,97937.07
2019-01-24T03:09:12.393Z,97946.56
2019-01-24T03:10:24.244Z,97941.05
2019-01-24T03:11:32.625Z,97935.02
2019-01-24T03:12:41.032Z,97938.95
2019-01-24T03:13:48.812Z,97937.13
2019-01-24T03:14:56.721Z,97933.23
2019-01-24T03:16:05.012Z,97940.55
2019-01-24T03:17:12.726Z,97943.14
2019-01-24T03:18:20.314Z,97954.42
2019-01-24T03:19:28.070Z,97941.55
2019-01-24T03:20:36.017Z,97942.00
2019-01-24T03:21:43.547Z,97955.42
2019-01-24T03:22:51.595Z,97949.80
2019-01-24T03:23:59.236Z,97953.64
2019-01-24T03:25:10.103Z,97948.85
2019-01-24T03:26:17.875Z,97958.30
2019-01-24T03:27:25.672Z,97954.42
2019-01-24T03:28:33.455Z,97947.60
2019-01-24T03:29:41.361Z,97936.81
2019-01-24T03:30:49.181Z,97953.53
2019-01-24T03:31:56.960Z,97944.48
2019-01-24T03:33:04.611Z,97941.38
2019-01-24T03:34:12.454Z,97941.73
2019-01-24T03:35:27.526Z,97948.11
2019-01-24T03:36:35.306Z,97948.60
2019-01-24T03:37:43.514Z,97949.94
2019-01-24T03:38:51.090Z,97949.94
2019-01-24T03:39:59.109Z,97943.48
2019-01-24T03:41:06.724Z,97950.70
2019-01-24T03:42:14.411Z,97948.09
2019-01-24T03:43:22.305Z,97945.50
2019-01-24T03:44:30.041Z,97944.21
2019-01-24T03:45:38.030Z,97945.92
2019-01-24T03:46:45.790Z,97951.52
2019-01-24T03:47:53.925Z,97958.34
2019-01-24T03:49:01.786Z,97962.58
2019-01-24T03:50:18.690Z,97970.03
2019-01-24T03:51:26.646Z,97962.38
2019-01-24T03:52:34.690Z,97971.93
2019-01-24T03:53:42.396Z,97961.98
2019-01-24T03:54:50.332Z,97967.11
2019-01-24T03:55:58.210Z,97966.20
2019-01-24T03:57:06.154Z,97975.16
2019-01-24T03:58:14.196Z,97975.96
2019-01-24T03:59:21.938Z,97967.69
2019-01-24T04:00:29.730Z,97958.59
2019-01-24T04:01:37.748Z,97978.89
2019-01-24T04:02:45.807Z,97966.50
2019-01-24T04:03:53.845Z,97977.41
2019-01-24T04:05:01.500Z,97976.21
2019-01-24T04:06:09.315Z,97969.70
2019-01-24T04:07:17.046Z,97965.32
2019-01-24T04:08:24.944Z,97983.81
2019-01-24T04:09:32.834Z,97978.55
2019-01-24T04:10:40.536Z,97960.04
2019-01-24T04:11:48.454Z,97979.55
2019-01-24T04:12:56.346Z,97975.77
2019-01-24T04:14:03.962Z,97984.86
2019-01-24T04:15:21.145Z,97975.42
2019-01-24T04:16:28.852Z,97986.31
2019-01-24T04:17:36.823Z,97976.86
2019-01-24T04:18:44.283Z,97995.76
2019-01-24T04:19:52.209Z,97983.23
2019-01-24T04:20:59.993Z,97988.80
2019-01-24T04:22:07.662Z,97980.58
2019-01-24T04:23:15.223Z,97989.19
2019-01-24T04:24:23.633Z,97992.17
2019-01-24T04:25:31.323Z,97995.66
2019-01-24T04:26:38.909Z,97994.83
2019-01-24T04:27:46.519Z,97996.66
2019-01-24T04:28:54.302Z,97988.55
2019-01-24T04:30:02.212Z,97995.02
2019-01-24T04:31:10.111Z,97989.45
2019-01-24T04:32:17.887Z,97992.08
2019-01-24T04:33:25.940Z,97991.72
2019-01-24T04:34:33.805Z,97983.63
2019-01-24T04:35:41.747Z,97991.33
2019-01-24T04:36:49.686Z,97992.17
2019-01-24T04:37:57.472Z,97995.95
2019-01-24T04:39:07.626Z,97995.91
2019-01-24T04:40:18.086Z,97998.05
2019-01-24T04:41:25.913Z,97990.34
2019-01-24T04:42:33.904Z,97992.86
2019-01-24T04:43:41.719Z,97993.66
2019-01-24T04:44:49.688Z,98002.23
2019-01-24T04:45:57.409Z,98002.23
2019-01-24T04:47:05.087Z,97983.27
2019-01-24T04:48:12.907Z,97999.33
2019-01-24T04:49:21.386Z,97994.22
2019-01-24T04:50:29.072Z,97995.11
2019-01-24T04:51:36.717Z,98001.53
2019-01-24T04:52:44.509Z,97999.34
2019-01-24T04:53:52.749Z,98004.91
2019-01-24T04:55:00.753Z,98000.58
2019-01-24T04:56:08.566Z,98005.75
2019-01-24T04:57:16.864Z,98003.92
2019-01-24T04:58:24.578Z,98006.05
2019-01-24T04:59:32.643Z,98005.59
2019-01-24T05:00:40.872Z,98012.42
2019-01-24T05:01:48.729Z,98014.56
2019-01-24T05:02:56.598Z,97996.86
2019-01-24T05:04:04.495Z,98005.52
2019-01-24T05:05:12.384Z,98010.79
2019-01-24T05:06:20.479Z,98010.48
2019-01-24T05:07:28.125Z,98007.45
2019-01-24T05:08:35.703Z,98001.53
2019-01-24T05:09:43.314Z,98010.58
2019-01-24T05:10:50.705Z,98017.89
2019-01-24T05:11:58.530Z,98006.34
2019-01-24T05:13:06.324Z,98006.39
2019-01-24T05:14:14.098Z,98016.30
2019-01-24T05:15:23.361Z,98004.25
2019-01-24T05:16:31.715Z,98002.46
2019-01-24T05:17:39.743Z,98010.53
2019-01-24T05:18:47.518Z,98007.89
2019-01-24T05:19:55.291Z,98016.54
2019-01-24T05:21:03.045Z,98022.52
2019-01-24T05:22:10.870Z,98017.84
2019-01-24T05:23:18.932Z,98015.30
2019-01-24T05:24:26.934Z,98022.30
2019-01-24T05:25:34.601Z,98019.67
2019-01-24T05:26:42.553Z,98008.54
2019-01-24T05:27:50.325Z,98017.18
2019-01-24T05:28:58.169Z,98015.19
2019-01-24T05:30:16.648Z,98028.97
2019-01-24T05:31:24.339Z,98017.34
2019-01-24T05:32:32.952Z,98019.08
2019-01-24T05:33:40.751Z,98025.58
2019-01-24T05:34:48.791Z,98019.91
2019-01-24T05:35:56.520Z,98028.91
2019-01-24T05:37:04.242Z,98025.97
2019-01-24T05:38:12.214Z,98027.36
2019-01-24T05:39:20.161Z,98024.38
2019-01-24T05:40:27.844Z,98027.02
2019-01-24T05:41:35.606Z,98035.30
2019-01-24T05:42:43.580Z,98026.30
2019-01-24T05:43:51.363Z,98036.23
2019-01-24T05:44:58.877Z,98029.34
2019-01-24T05:46:07.144Z,98032.76
2019-01-24T05:47:14.854Z,98034.33
2019-01-24T05:48:22.644Z,98033.38
2019-01-24T05:49:30.641Z,98029.02
2019-01-24T05:50:38.407Z,98043.14
2019-01-24T05:51:46.192Z,98050.36
2019-01-24T05:52:54.129Z,98041.31
2019-01-24T05:54:01.759Z,98049.11
2019-01-24T05:55:12.846Z,98049.24
2019-01-24T05:56:21.046Z,98054.47
2019-01-24T05:57:28.992Z,98057.09
2019-01-24T05:58:36.744Z,98049.83
2019-01-24T05:59:44.689Z,98049.84
2019-01-24T06:00:52.560Z,98048.98
2019-01-24T06:02:00.588Z,98056.75
2019-01-24T06:03:08.411Z,98048.55
2019-01-24T06:04:16.301Z,98044.71
2019-01-24T06:05:24.221Z,98061.02
2019-01-24T06:06:32.083Z,98042.96
2019-01-24T06:07:39.868Z,98055.00
2019-01-24T06:08:47.567Z,98060.17
2019-01-24T06:09:55.296Z,98066.23
2019-01-24T06:11:03.035Z,98058.61
2019-01-24T06:12:10.818Z,98054.29
2019-01-24T06:13:21.371Z,98049.57
2019-01-24T06:14:29.276Z,98056.38
2019-01-24T06:15:37.082Z,98049.12
2019-01-24T06:16:44.863Z,98046.41
2019-01-24T06:17:52.813Z,98045.50
2019-01-24T06:19:00.501Z,98048.45
2019-01-24T06:20:10.215Z,98027.36
2019-01-24T06:21:18.333Z,98054.16
2019-01-24T06:22:26.308Z,98061.86
2019-01-24T06:23:33.958Z,98049.74
2019-01-24T06:24:42.886Z,98051.39
2019-01-24T06:25:50.944Z,98048.35
2019-01-24T06:26:59.354Z,98050.09
2019-01-24T06:28:07.215Z,98058.65
2019-01-24T06:29:17.059Z,98065.16
2019-01-24T06:30:25.480Z,98061.78
2019-01-24T06:31:34.912Z,98066.14
2019-01-24T06:32:42.730Z,98057.23
2019-01-24T06:33:50.710Z,98058.52
2019-01-24T06:34:58.883Z,98060.66
2019-01-24T06:36:06.701Z,98060.18
2019-01-24T06:37:14.369Z,98055.44
2019-01-24T06:38:22.495Z,98059.69
2019-01-24T06:39:30.587Z,98061.78
2019-01-24T06:40:38.287Z,98062.63
2019-01-24T06:41:46.271Z,98060.08
2019-01-24T06:42:53.989Z,98068.20
2019-01-24T06:44:02.098Z,98066.10
2019-01-24T06:45:20.644Z,98073.81
2019-01-24T06:46:28.458Z,98069.94
2019-01-24T06:47:36.408Z,98069.09
2019-01-24T06:48:44.670Z,98070.38
2019-01-24T06:49:52.333Z,98074.70
2019-01-24T06:51:00.554Z,98066.47
2019-01-24T06:52:08.417Z,98056.55
2019-01-24T06:53:16.644Z,98075.06
2019-01-24T06:54:24.681Z,98073.23
2019-01-24T06:55:32.740Z,98073.32
2019-01-24T06:56:40.814Z,98075.46
2019-01-24T06:57:48.640Z,98070.29
2019-01-24T06:58:56.668Z,98083.72
2019-01-24T07:00:06.466Z,98089.38
2019-01-24T07:01:14.674Z,98073.86
2019-01-24T07:02:23.232Z,98081.56
2019-01-24T07:03:31.074Z,98069.04
2019-01-24T07:04:38.958Z,98089.73
2019-01-24T07:05:46.753Z,98087.05
2019-01-24T07:06:55.032Z,98085.36
2019-01-24T07:08:03.356Z,98082.86
2019-01-24T07:09:11.445Z,98084.61
2019-01-24T07:10:22.717Z,98085.98
2019-01-24T07:11:30.721Z,98093.79
2019-01-24T07:12:38.711Z,98086.92
2019-01-24T07:13:46.915Z,98088.66
2019-01-24T07:14:55.101Z,98087.77
2019-01-24T07:16:03.303Z,98088.16
2019-01-24T07:17:11.766Z,98096.77
2019-01-24T07:18:20.066Z,98093.66
2019-01-24T07:19:27.761Z,98095.34
2019-01-24T07:20:38.609Z,98094.50
2019-01-24T07:21:46.676Z,98082.87
2019-01-24T07:22:55.481Z,98093.20
2019-01-24T07:24:03.304Z,98095.78
2019-01-24T07:25:24.094Z,98096.64
2019-01-24T07:26:31.773Z,98095.84
2019-01-24T07:27:39.665Z,98098.83
2019-01-24T07:28:47.538Z,98106.53
2019-01-24T07:29:55.532Z,98121.08
2019-01-24T07:31:03.403Z,98114.16
2019-01-24T07:32:11.267Z,98112.42
2019-01-24T07:33:19.551Z,98111.66
2019-01-24T07:34:27.511Z,98109.97
2019-01-24T07:35:35.594Z,98116.03
2019-01-24T07:36:43.674Z,98117.33
2019-01-24T07:37:51.750Z,98115.58
2019-01-24T07:38:59.593Z,98121.11
2019-01-24T07:40:11.432Z,98116.75
2019-01-24T07:41:19.320Z,98112.11
2019-01-24T07:42:27.335Z,98122.00
2019-01-24T07:43:35.191Z,98117.28
2019-01-24T07:44:42.979Z,98121.60
2019-01-24T07:45:51.240Z,98121.64
2019-01-24T07:46:59.239Z,98129.80
2019-01-24T07:48:07.211Z,98132.40
2019-01-24T07:49:15.257Z,98122.50
2019-01-24T07:50:23.579Z,98129.05
2019-01-24T07:51:31.687Z,98129.98
2019-01-24T07:52:39.531Z,98145.94
2019-01-24T07:53:47.628Z,98139.96
2019-01-24T07:54:55.317Z,98138.18
2019-01-24T07:56:03.498Z,98146.34
2019-01-24T07:57:11.146Z,98136.84
2019-01-24T07:58:18.909Z,98140.77
2019-01-24T07:59:27.129Z,98142.91
2019-01-24T08:00:35.049Z,98140.77
2019-01-24T08:01:43.023Z,98137.66
2019-01-24T08:02:50.913Z,98138.01
2019-01-24T08:03:59.031Z,98145.23
2019-01-24T08:05:11.200Z,98149.07
2019-01-24T08:06:18.890Z,98145.19
2019-01-24T08:07:26.748Z,98145.59
2019-01-24T08:08:34.707Z,98143.37
2019-01-24T08:09:42.216Z,98147.56
2019-01-24T08:10:49.784Z,98146.67
2019-01-24T08:11:57.633Z,98141.41
2019-01-24T08:13:05.965Z,98145.20
2019-01-24T08:14:13.809Z,98142.97
2019-01-24T08:15:23.547Z,98148.14
2019-01-24T08:16:31.585Z,98148.14
2019-01-24T08:17:39.513Z,98155.99
2019-01-24T08:18:47.273Z,98158.58
2019-01-24T08:19:55.053Z,98149.92
2019-01-24T08:21:03.159Z,98153.77
2019-01-24T08:22:10.506Z,98156.39
2019-01-24T08:23:18.426Z,98142.25
2019-01-24T08:24:25.883Z,98147.02
2019-01-24T08:25:33.768Z,98150.01
2019-01-24T08:26:41.640Z,98155.14
2019-01-24T08:27:49.524Z,98158.98
2019-01-24T08:28:57.614Z,98157.69
2019-01-24T08:30:10.118Z,98159.29
2019-01-24T08:31:17.869Z,98155.77
2019-01-24T08:32:25.669Z,98152.29
2019-01-24T08:33:33.435Z,98156.58
2019-01-24T08:34:40.989Z,98154.42
2019-01-24T08:35:48.927Z,98158.27
2019-01-24T08:36:57.119Z,98156.97
2019-01-24T08:38:04.775Z,98154.73
2019-01-24T08:39:12.841Z,98159.55
2019-01-24T08:40:22.543Z,98155.27
2019-01-24T08:41:30.602Z,98163.48
2019-01-24T08:42:38.629Z,98165.27
2019-01-24T08:43:46.349Z,98148.58
2019-01-24T08:44:54.208Z,98157.20
2019-01-24T08:46:02.000Z,98158.58
2019-01-24T08:47:10.153Z,98145.56
2019-01-24T08:48:17.778Z,98156.30
2019-01-24T08:49:25.877Z,98151.89
2019-01-24T08:50:33.925Z,98157.91
2019-01-24T08:51:41.475Z,98148.45
2019-01-24T08:52:49.838Z,98160.22
2019-01-24T08:53:57.651Z,98157.20
2019-01-24T08:55:08.737Z,98157.69
2019-01-24T08:56:16.518Z,98165.05
2019-01-24T08:57:24.129Z,98156.87
2019-01-24T08:58:31.815Z,98152.88
2019-01-24T08:59:39.565Z,98150.64
2019-01-24T09:00:47.580Z,98152.73
2019-01-24T09:01:55.630Z,98166.97
2019-01-24T09:03:03.384Z,98176.02
2019-01-24T09:04:11.339Z,98168.30
2019-01-24T09:05:18.940Z,98180.70
2019-01-24T09:06:27.123Z,98176.28
2019-01-24T09:07:35.048Z,98173.20
2019-01-24T09:08:42.690Z,98167.54
2019-01-24T09:09:50.800Z,98179.09
2019-01-24T09:10:58.866Z,98172.53
2019-01-24T09:12:06.329Z,98185.43
2019-01-24T09:13:14.089Z,98182.38
2019-01-24T09:14:22.221Z,98178.02
2019-01-24T09:15:30.064Z,98183.95
2019-01-24T09:16:37.688Z,98184.78
2019-01-24T09:17:45.899Z,98193.31
2019-01-24T09:18:53.518Z,98190.68
2019-01-24T09:20:01.496Z,98189.38
2019-01-24T09:21:09.016Z,98190.22
2019-01-24T09:22:16.669Z,98183.75
2019-01-24T09:23:24.571Z,98192.77
2019-01-24T09:24:32.321Z,98191.83
2019-01-24T09:25:40.045Z,98184.01
2019-01-24T09:26:47.712Z,98197.80
2019-01-24T09:27:55.213Z,98199.55
2019-01-24T09:29:02.836Z,98194.83
2019-01-24T09:30:15.247Z,98199.16
2019-01-24T09:31:24.440Z,98198.70
2019-01-24T09:32:32.259Z,98199.55
2019-01-24T09:33:39.954Z,98188.30
2019-01-24T09:34:47.774Z,98195.57
2019-01-24T09:35:55.437Z,98200.30
2019-01-24T09:37:03.438Z,98191.33
2019-01-24T09:38:11.190Z,98187.50
2019-01-24T09:39:19.244Z,98196.52
2019-01-24T09:40:27.058Z,98198.65
2019-01-24T09:41:35.029Z,98198.50
2019-01-24T09:42:43.055Z,98200.50
2019-01-24T09:43:50.790Z,98197.33
2019-01-24T09:44:58.703Z,98190.30
2019-01-24T09:46:06.523Z,98189.75
2019-01-24T09:47:14.189Z,98182.78
2019-01-24T09:48:22.199Z,98187.52
2019-01-24T09:49:29.902Z,98195.73
2019-01-24T09:50:37.594Z,98194.59
2019-01-24T09:51:45.461Z,98191.25
2019-01-24T09:52:53.458Z,98182.69
2019-01-24T09:54:01.196Z,98182.59
2019-01-24T09:55:10.170Z,98189.95
2019-01-24T09:56:18.266Z,98185.61
2019-01-24T09:57:26.454Z,98186.33
2019-01-24T09:58:34.210Z,98179.70
2019-01-24T09:59:42.031Z,98174.90
2019-01-24T10:00:49.826Z,98187.81
2019-01-24T10:01:57.458Z,98184.38
2019-01-24T10:03:05.224Z,98180.88
2019-01-24T10:04:13.260Z,98184.32
2019-01-24T10:05:21.081Z,98177.05
2019-01-24T10:06:28.994Z,98189.61
2019-01-24T10:07:36.798Z,98183.67
2019-01-24T10:08:44.605Z,98186.42
2019-01-24T10:09:52.440Z,98190.80
2019-01-24T10:11:00.104Z,98190.09
2019-01-24T10:12:07.748Z,98192.30
2019-01-24T10:13:15.568Z,98189.26
2019-01-24T10:14:23.446Z,98187.91
2019-01-24T10:15:31.519Z,98190.55
2019-01-24T10:16:39.588Z,98196.62
2019-01-24T10:17:47.489Z,98190.95
2019-01-24T10:18:55.992Z,98184.83
2019-01-24T10:20:04.651Z,98187.81
2019-01-24T10:21:12.498Z,98192.59
2019-01-24T10:22:20.377Z,98174.11
2019-01-24T10:23:28.179Z,98183.17
2019-01-24T10:24:36.054Z,98187.37
2019-01-24T10:25:43.811Z,98188.27
2019-01-24T10:26:51.678Z,98194.34
2019-01-24T10:27:59.436Z,98183.47
2019-01-24T10:29:07.184Z,98193.40
2019-01-24T10:30:19.123Z,98186.92
2019-01-24T10:31:27.296Z,98172.77
2019-01-24T10:32:35.090Z,98175.00
2019-01-24T10:33:43.633Z,98167.30
2019-01-24T10:34:51.529Z,98168.04
2019-01-24T10:35:59.751Z,98171.83
2019-01-24T10:37:07.705Z,98157.92
2019-01-24T10:38:15.883Z,98174.27
2019-01-24T10:39:23.917Z,98171.19
2019-01-24T10:40:33.957Z,98163.41
2019-01-24T10:41:41.709Z,98170.33
2019-01-24T10:42:50.024Z,98178.40
2019-01-24T10:43:57.964Z,98186.58
2019-01-24T10:45:10.850Z,98173.63
2019-01-24T10:46:18.770Z,98186.22
2019-01-24T10:47:26.968Z,98175.07
2019-01-24T10:48:36.805Z,98172.08
2019-01-24T10:49:45.010Z,98172.48
2019-01-24T10:50:52.801Z,98166.00
2019-01-24T10:52:00.683Z,98175.61
2019-01-24T10:53:08.781Z,98174.41
2019-01-24T10:54:16.803Z,98180.84
2019-01-24T10:55:27.429Z,98182.04
2019-01-24T10:56:35.367Z,98185.42
2019-01-24T10:57:43.763Z,98177.11
2019-01-24T10:58:52.419Z,98175.31
2019-01-24T11:00:00.691Z,98181.28
2019-01-24T11:01:08.827Z,98176.84
2019-01-24T11:02:17.018Z,98168.69
2019-01-24T11:03:24.816Z,98170.38
2019-01-24T11:04:32.867Z,98157.88
2019-01-24T11:05:42.579Z,98171.21
2019-01-24T11:06:50.853Z,98167.77
2019-01-24T11:07:59.276Z,98166.08
2019-01-24T11:09:09.229Z,98165.69
2019-01-24T11:10:19.951Z,98163.55
2019-01-24T11:11:27.969Z,98172.06
2019-01-24T11:12:35.611Z,98179.29
2019-01-24T11:13:43.478Z,98167.28
2019-01-24T11:14:51.215Z,98155.66
2019-01-24T11:15:58.896Z,98152.12
2019-01-24T11:17:06.626Z,98150.78
2019-01-24T11:18:14.474Z,98153.31
2019-01-24T11:19:22.822Z,98154.11
2019-01-24T11:20:30.874Z,98140.27
2019-01-24T11:21:39.000Z,98130.62
2019-01-24T11:22:46.887Z,98139.20
2019-01-24T11:23:55.084Z,98146.48
2019-01-24T11:25:03.762Z,98153.05
2019-01-24T11:26:11.773Z,98151.20
2019-01-24T11:27:19.755Z,98145.02
2019-01-24T11:28:27.646Z,98149.30
2019-01-24T11:29:35.391Z,98151.88
2019-01-24T11:30:43.051Z,98147.94
2019-01-24T11:31:51.171Z,98157.41
2019-01-24T11:32:59.161Z,98153.58
2019-01-24T11:34:06.828Z,98157.45
2019-01-24T11:35:18.686Z,98151.03
2019-01-24T11:36:26.596Z,98161.02
2019-01-24T11:37:34.163Z,98155.87
2019-01-24T11:38:41.790Z,98154.68
2019-01-24T11:39:49.779Z,98157.74
2019-01-24T11:40:57.572Z,98149.97
2019-01-24T11:42:05.509Z,98147.97
2019-01-24T11:43:13.392Z,98138.90
2019-01-24T11:44:21.685Z,98140.50
2019-01-24T11:45:36.617Z,98155.08
2019-01-24T11:46:44.417Z,98145.91
2019-01-24T11:47:52.321Z,98151.09
2019-01-24T11:49:00.185Z,98146.41
2019-01-24T11:50:12.389Z,98149.00
2019-01-24T11:51:20.141Z,98150.30
2019-01-24T11:52:28.616Z,98149.91
2019-01-24T11:53:36.527Z,98150.46
2019-01-24T11:54:44.376Z,98148.72
2019-01-24T11:55:52.854Z,98145.56
2019-01-24T11:57:01.092Z,98143.72
2019-01-24T11:58:08.821Z,98146.76
2019-01-24T11:59:16.601Z,98138.23
2019-01-24T12:00:35.035Z,98152.11
2019-01-24T12:01:43.511Z,98140.19
2019-01-24T12:02:51.314Z,98135.17
2019-01-24T12:03:59.077Z,98146.73
2019-01-24T12:05:10.524Z,98149.73
2019-01-24T12:06:18.290Z,98137.62
2019-01-24T12:07:26.073Z,98135.41
2019-01-24T12:08:33.956Z,98146.48
2019-01-24T12:09:41.848Z,98135.49
2019-01-24T12:10:50.042Z,98133.18
2019-01-24T12:11:58.010Z,98128.89
2019-01-24T12:13:05.536Z,98141.02
2019-01-24T12:14:13.374Z,98134.98
2019-01-24T12:15:27.331Z,98129.84
2019-01-24T12:16:35.239Z,98135.03
2019-01-24T12:17:42.879Z,98130.29
2019-01-24T12:18:50.480Z,98132.88
2019-01-24T12:19:58.163Z,98116.55
2019-01-24T12:21:05.991Z,98141.79
2019-01-24T12:22:13.923Z,98136.32
2019-01-24T12:23:21.657Z,98136.38
2019-01-24T12:24:29.581Z,98135.57
2019-01-24T12:25:37.045Z,98133.87
2019-01-24T12:26:45.079Z,98138.21
2019-01-24T12:27:53.192Z,98143.34
2019-01-24T12:29:01.287Z,98139.52
2019-01-24T12:30:24.528Z,98143.41
2019-01-24T12:31:33.986Z,98133.50
2019-01-24T12:32:41.934Z,98142.09
2019-01-24T12:33:49.845Z,98135.17
2019-01-24T12:34:57.833Z,98143.70
2019-01-24T12:36:05.994Z,98144.08
2019-01-24T12:37:13.924Z,98138.41
2019-01-24T12:38:21.781Z,98138.45
2019-01-24T12:39:30.143Z,98144.88
2019-01-24T12:40:37.832Z,98127.63
2019-01-24T12:41:45.750Z,98132.77
2019-01-24T12:42:53.391Z,98126.17
2019-01-24T12:44:01.212Z,98130.46
2019-01-24T12:45:22.370Z,98124.83
2019-01-24T12:46:30.288Z,98117.52
2019-01-24T12:47:38.082Z,98118.63
2019-01-24T12:48:47.200Z,98129.99
2019-01-24T12:49:55.226Z,98124.42
2019-01-24T12:51:03.476Z,98122.38
2019-01-24T12:52:11.331Z,98127.56
2019-01-24T12:53:19.321Z,98124.48
2019-01-24T12:54:26.903Z,98124.58
2019-01-24T12:55:34.617Z,98123.74
2019-01-24T12:56:42.493Z,98115.17
2019-01-24T12:57:50.126Z,98120.45
2019-01-24T12:58:57.863Z,98118.75
2019-01-24T13:00:13.179Z,98108.34
2019-01-24T13:01:20.940Z,98121.20
2019-01-24T13:02:28.507Z,98127.63
2019-01-24T13:03:36.066Z,98102.22
2019-01-24T13:04:43.902Z,98104.41
2019-01-24T13:05:51.874Z,98120.75
2019-01-24T13:06:59.753Z,98096.54
2019-01-24T13:08:07.739Z,98118.50
2019-01-24T13:09:15.565Z,98114.67
2019-01-24T13:10:28.023Z,98108.74
2019-01-24T13:11:35.723Z,98107.09
2019-01-24T13:12:43.886Z,98115.73
2019-01-24T13:13:51.984Z,98109.25
2019-01-24T13:14:59.898Z,98115.67
2019-01-24T13:16:07.801Z,98114.67
2019-01-24T13:17:15.779Z,98113.31
2019-01-24T13:18:24.074Z,98115.80
2019-01-24T13:19:31.792Z,98106.73
2019-01-24T13:20:39.858Z,98106.73
2019-01-24T13:21:47.654Z,98095.02